createdAt,value
2018-11-02T00:01:41.610Z,87.13
2018-11-02T00:04:09.901Z,87.94
2018-11-02T00:06:38.192Z,88.01
2018-11-02T00:09:07.123Z,87.47
2018-11-02T00:11:35.460Z,87.97
2018-11-02T00:14:03.737Z,87.84
2018-11-02T00:16:32.102Z,88.13
2018-11-02T00:19:00.400Z,88.67
2018-11-02T00:21:28.780Z,88.16
2018-11-02T00:23:57.078Z,88.29
2018-11-02T00:26:25.396Z,87.97
2018-11-02T00:28:53.686Z,88.27
2018-11-02T00:31:21.949Z,88.85
2018-11-02T00:33:50.240Z,89.08
2018-11-02T00:36:18.534Z,89.87
2018-11-02T00:38:46.837Z,88.42
2018-11-02T00:41:15.150Z,88.80
2018-11-02T00:43:43.467Z,88.71
2018-11-02T00:46:11.768Z,88.82
2018-11-02T00:48:40.231Z,88.91
2018-11-02T00:51:08.585Z,88.93
2018-11-02T00:53:36.878Z,89.21
2018-11-02T00:56:05.420Z,89.35
2018-11-02T00:58:33.931Z,89.92
2018-11-02T01:01:02.214Z,89.71
2018-11-02T01:03:30.510Z,89.89
2018-11-02T01:05:58.804Z,89.78
2018-11-02T01:08:28.751Z,90.26
2018-11-02T01:10:57.110Z,89.69
2018-11-02T01:13:25.429Z,90.35
2018-11-02T01:15:53.694Z,90.18
2018-11-02T01:18:22.141Z,90.35
2018-11-02T01:20:50.426Z,90.61
2018-11-02T01:23:18.755Z,90.61
2018-11-02T01:25:47.019Z,90.46
2018-11-02T01:28:15.337Z,90.71
2018-11-02T01:30:43.611Z,90.11
2018-11-02T01:33:11.906Z,90.84
2018-11-02T01:35:40.291Z,91.07
2018-11-02T01:38:08.559Z,90.76
2018-11-02T01:40:36.970Z,91.09
2018-11-02T01:43:06.239Z,92.07
2018-11-02T01:45:34.610Z,91.51
2018-11-02T01:48:02.907Z,90.69
2018-11-02T01:50:31.283Z,91.70
2018-11-02T01:52:59.543Z,91.74
2018-11-02T01:55:27.949Z,91.70
2018-11-02T01:57:56.201Z,91.68
2018-11-02T02:00:24.507Z,92.11
2018-11-02T02:02:52.794Z,92.06
2018-11-02T02:05:21.190Z,92.52
2018-11-02T02:07:49.458Z,92.29
2018-11-02T02:10:17.844Z,91.53
2018-11-02T02:12:46.151Z,91.70
2018-11-02T02:15:14.474Z,92.03
2018-11-02T02:17:42.779Z,91.27
2018-11-02T02:20:11.101Z,91.58
2018-11-02T02:22:39.388Z,91.47
2018-11-02T02:25:08.300Z,91.04
2018-11-02T02:27:38.087Z,91.72
2018-11-02T02:30:09.974Z,91.63
2018-11-02T02:32:38.632Z,91.17
2018-11-02T02:35:07.338Z,91.47
2018-11-02T02:37:35.931Z,92.12
2018-11-02T02:40:04.589Z,91.61
2018-11-02T02:42:32.867Z,92.21
2018-11-02T02:45:01.240Z,91.69
2018-11-02T02:47:29.556Z,90.65
2018-11-02T02:49:57.939Z,91.42
2018-11-02T02:52:26.580Z,90.74
2018-11-02T02:54:54.891Z,91.24
2018-11-02T02:57:23.162Z,91.26
2018-11-02T02:59:51.464Z,91.14
2018-11-02T03:02:19.729Z,90.56
2018-11-02T03:04:48.050Z,90.98
2018-11-02T03:07:16.348Z,90.74
2018-11-02T03:09:44.653Z,90.53
2018-11-02T03:12:12.942Z,91.04
2018-11-02T03:14:41.230Z,91.00
2018-11-02T03:17:09.580Z,90.83
2018-11-02T03:19:37.882Z,91.13
2018-11-02T03:22:06.337Z,90.93
2018-11-02T03:24:34.929Z,91.11
2018-11-02T03:27:03.339Z,91.06
2018-11-02T03:29:31.724Z,91.44
2018-11-02T03:32:00.132Z,90.54
2018-11-02T03:34:28.403Z,90.19
2018-11-02T03:36:56.706Z,90.67
2018-11-02T03:39:24.979Z,90.50
2018-11-02T03:41:53.287Z,90.23
2018-11-02T03:44:21.558Z,91.18
2018-11-02T03:46:49.863Z,90.17
2018-11-02T03:49:18.135Z,90.42
2018-11-02T03:51:46.526Z,90.79
2018-11-02T03:54:14.785Z,90.40
2018-11-02T03:56:43.167Z,90.29
2018-11-02T03:59:11.554Z,90.04
2018-11-02T04:01:39.852Z,90.21
2018-11-02T04:04:08.407Z,90.64
2018-11-02T04:06:36.701Z,90.62
2018-11-02T04:09:06.425Z,90.35
2018-11-02T04:11:34.725Z,90.14
2018-11-02T04:14:03.083Z,90.14
2018-11-02T04:16:31.382Z,90.18
2018-11-02T04:18:59.686Z,89.90
2018-11-02T04:21:28.005Z,89.83
2018-11-02T04:23:56.286Z,90.21
2018-11-02T04:26:24.628Z,89.98
2018-11-02T04:28:52.974Z,90.46
2018-11-02T04:31:21.387Z,89.54
2018-11-02T04:33:49.828Z,89.79
2018-11-02T04:36:18.141Z,89.94
2018-11-02T04:38:46.428Z,90.47
2018-11-02T04:41:14.751Z,90.46
2018-11-02T04:43:43.105Z,89.61
2018-11-02T04:46:11.499Z,90.42
2018-11-02T04:48:39.771Z,89.91
2018-11-02T04:51:08.222Z,89.50
2018-11-02T04:53:36.526Z,89.60
2018-11-02T04:56:04.916Z,89.47
2018-11-02T04:58:33.246Z,90.19
2018-11-02T05:01:01.599Z,90.56
2018-11-02T05:03:29.881Z,90.16
2018-11-02T05:05:58.176Z,88.96
2018-11-02T05:08:26.553Z,88.27
2018-11-02T05:10:54.867Z,88.02
2018-11-02T05:13:23.192Z,89.29
2018-11-02T05:15:51.526Z,88.79
2018-11-02T05:18:19.822Z,89.47
2018-11-02T05:20:48.194Z,89.36
2018-11-02T05:23:16.444Z,89.06
2018-11-02T05:25:44.718Z,89.42
2018-11-02T05:28:13.007Z,88.82
2018-11-02T05:30:41.350Z,89.00
2018-11-02T05:33:09.668Z,89.65
2018-11-02T05:35:37.941Z,89.28
2018-11-02T05:38:06.228Z,89.21
2018-11-02T05:40:34.510Z,88.63
2018-11-02T05:43:02.844Z,88.74
2018-11-02T05:45:31.137Z,89.29
2018-11-02T05:47:59.482Z,89.64
2018-11-02T05:50:27.875Z,89.51
2018-11-02T05:52:56.250Z,89.83
2018-11-02T05:55:24.630Z,89.28
2018-11-02T05:57:52.914Z,90.33
2018-11-02T06:00:21.295Z,90.05
2018-11-02T06:02:49.604Z,90.12
2018-11-02T06:05:17.913Z,90.28
2018-11-02T06:07:46.258Z,90.33
2018-11-02T06:10:14.550Z,90.33
2018-11-02T06:12:42.839Z,90.11
2018-11-02T06:15:11.176Z,90.75
2018-11-02T06:17:39.513Z,90.57
2018-11-02T06:20:08.421Z,90.81
2018-11-02T06:22:37.008Z,90.26
2018-11-02T06:25:06.591Z,89.40
2018-11-02T06:27:35.020Z,88.78
2018-11-02T06:30:04.051Z,89.50
2018-11-02T06:32:32.441Z,88.11
2018-11-02T06:35:01.109Z,86.87
2018-11-02T06:37:30.197Z,87.09
2018-11-02T06:39:58.618Z,88.05
2018-11-02T06:42:26.942Z,88.85
2018-11-02T06:44:59.931Z,86.93
2018-11-02T06:47:28.692Z,88.17
2018-11-02T06:49:56.969Z,88.71
2018-11-02T06:52:25.412Z,89.42
2018-11-02T06:54:53.690Z,89.32
2018-11-02T06:57:21.985Z,89.87
2018-11-02T06:59:50.713Z,90.43
2018-11-02T07:02:18.843Z,90.64
2018-11-02T07:04:47.118Z,89.89
2018-11-02T07:07:15.552Z,89.47
2018-11-02T07:09:43.842Z,89.45
2018-11-02T07:12:12.143Z,89.34
2018-11-02T07:14:40.470Z,89.31
2018-11-02T07:17:08.774Z,90.11
2018-11-02T07:19:37.092Z,89.91
2018-11-02T07:22:05.830Z,89.38
2018-11-02T07:24:34.192Z,89.66
2018-11-02T07:27:02.491Z,89.75
2018-11-02T07:29:30.839Z,89.56
2018-11-02T07:31:59.127Z,89.28
2018-11-02T07:34:27.524Z,89.08
2018-11-02T07:36:55.777Z,88.64
2018-11-02T07:39:24.063Z,88.52
2018-11-02T07:41:52.461Z,88.94
2018-11-02T07:44:20.874Z,89.39
2018-11-02T07:46:49.197Z,87.87
2018-11-02T07:49:17.530Z,87.56
2018-11-02T07:51:45.808Z,87.35
2018-11-02T07:54:14.101Z,87.75
2018-11-02T07:56:42.408Z,87.37
2018-11-02T07:59:10.818Z,87.35
2018-11-02T08:01:39.147Z,87.05
2018-11-02T08:04:07.456Z,87.25
2018-11-02T08:06:35.800Z,86.61
2018-11-02T08:09:05.482Z,86.81
2018-11-02T08:11:33.879Z,86.48
2018-11-02T08:14:02.172Z,86.61
2018-11-02T08:16:30.457Z,86.44
2018-11-02T08:18:58.769Z,86.78
2018-11-02T08:21:27.086Z,86.18
2018-11-02T08:23:55.443Z,84.88
2018-11-02T08:26:23.838Z,83.91
2018-11-02T08:28:52.166Z,83.55
2018-11-02T08:31:20.652Z,83.99
2018-11-02T08:33:48.943Z,85.01
2018-11-02T08:36:17.509Z,82.80
2018-11-02T08:38:46.167Z,83.05
2018-11-02T08:41:14.479Z,84.04
2018-11-02T08:43:42.753Z,84.20
2018-11-02T08:46:11.138Z,82.74
2018-11-02T08:48:39.513Z,82.46
2018-11-02T08:51:07.827Z,83.02
2018-11-02T08:53:36.184Z,82.47
2018-11-02T08:56:04.506Z,82.37
2018-11-02T08:58:32.927Z,82.37
2018-11-02T09:01:01.148Z,83.03
2018-11-02T09:03:29.414Z,82.75
2018-11-02T09:05:57.846Z,81.06
2018-11-02T09:08:26.138Z,79.49
2018-11-02T09:10:54.568Z,79.52
2018-11-02T09:13:22.851Z,78.55
2018-11-02T09:15:51.111Z,78.36
2018-11-02T09:18:19.391Z,78.29
2018-11-02T09:20:47.695Z,77.90
2018-11-02T09:23:15.970Z,76.87
2018-11-02T09:25:44.290Z,77.95
2018-11-02T09:28:12.762Z,77.39
2018-11-02T09:30:41.095Z,77.35
2018-11-02T09:33:09.394Z,76.03
2018-11-02T09:35:37.713Z,75.30
2018-11-02T09:38:06.247Z,76.26
2018-11-02T09:40:34.745Z,76.12
2018-11-02T09:43:03.015Z,75.40
2018-11-02T09:45:31.355Z,74.72
2018-11-02T09:47:59.632Z,72.29
2018-11-02T09:50:27.946Z,73.79
2018-11-02T09:52:56.260Z,73.44
2018-11-02T09:55:24.583Z,73.55
2018-11-02T09:57:53.035Z,75.07
2018-11-02T10:00:21.274Z,72.73
2018-11-02T10:02:49.547Z,72.92
2018-11-02T10:05:17.858Z,71.84
2018-11-02T10:07:46.139Z,71.11
2018-11-02T10:10:14.552Z,71.20
2018-11-02T10:12:42.983Z,71.49
2018-11-02T10:15:13.851Z,69.82
2018-11-02T10:17:42.172Z,71.28
2018-11-02T10:20:11.106Z,70.13
2018-11-02T10:22:39.604Z,68.89
2018-11-02T10:25:08.758Z,70.00
2018-11-02T10:27:37.359Z,69.31
2018-11-02T10:30:07.800Z,68.35
2018-11-02T10:32:36.139Z,69.92
2018-11-02T10:35:04.739Z,70.92
2018-11-02T10:37:33.147Z,70.91
2018-11-02T10:40:01.487Z,73.20
2018-11-02T10:42:29.956Z,71.98
2018-11-02T10:44:58.364Z,72.77
2018-11-02T10:47:26.701Z,72.35
2018-11-02T10:49:54.989Z,72.25
2018-11-02T10:52:23.338Z,71.93
2018-11-02T10:54:51.632Z,71.62
2018-11-02T10:57:19.926Z,71.31
2018-11-02T10:59:48.234Z,72.40
2018-11-02T11:02:21.859Z,72.06
2018-11-02T11:04:50.205Z,72.42
2018-11-02T11:07:18.525Z,72.19
2018-11-02T11:09:46.846Z,71.48
2018-11-02T11:12:15.202Z,70.99
2018-11-02T11:14:43.497Z,71.70
2018-11-02T11:17:11.870Z,70.97
2018-11-02T11:19:40.167Z,70.96
2018-11-02T11:22:08.500Z,70.91
2018-11-02T11:24:36.791Z,71.04
2018-11-02T11:27:05.343Z,71.01
2018-11-02T11:29:33.739Z,70.06
2018-11-02T11:32:02.014Z,69.78
2018-11-02T11:34:30.313Z,69.22
2018-11-02T11:36:58.634Z,71.52
2018-11-02T11:39:26.998Z,70.14
2018-11-02T11:41:55.287Z,68.34
2018-11-02T11:44:23.791Z,66.53
2018-11-02T11:46:52.066Z,66.41
2018-11-02T11:49:20.455Z,67.22
2018-11-02T11:51:48.694Z,66.31
2018-11-02T11:54:17.111Z,67.51
2018-11-02T11:56:45.337Z,68.40
2018-11-02T11:59:13.625Z,66.84
2018-11-02T12:01:41.929Z,66.40
2018-11-02T12:04:10.243Z,67.33
2018-11-02T12:06:38.633Z,67.98
2018-11-02T12:09:07.599Z,67.55
2018-11-02T12:11:35.892Z,67.14
2018-11-02T12:14:04.210Z,65.40
2018-11-02T12:16:32.507Z,66.96
2018-11-02T12:19:00.852Z,65.98
2018-11-02T12:21:29.168Z,68.02
2018-11-02T12:23:57.506Z,67.15
2018-11-02T12:26:25.787Z,68.78
2018-11-02T12:28:54.091Z,67.30
2018-11-02T12:31:22.371Z,66.75
2018-11-02T12:33:50.807Z,67.92
2018-11-02T12:36:19.126Z,64.93
2018-11-02T12:38:47.431Z,67.23
2018-11-02T12:41:15.881Z,64.25
2018-11-02T12:43:44.212Z,66.74
2018-11-02T12:46:12.467Z,66.90
2018-11-02T12:48:40.969Z,66.95
2018-11-02T12:51:09.130Z,65.50
2018-11-02T12:53:37.456Z,65.52
2018-11-02T12:56:05.743Z,65.67
2018-11-02T12:58:34.143Z,65.92
2018-11-02T13:01:02.541Z,65.27
2018-11-02T13:03:30.824Z,64.54
2018-11-02T13:05:59.142Z,66.16
2018-11-02T13:08:27.694Z,66.38
2018-11-02T13:10:56.028Z,66.41
2018-11-02T13:13:24.332Z,67.77
2018-11-02T13:15:52.667Z,66.75
2018-11-02T13:18:21.331Z,67.51
2018-11-02T13:20:49.764Z,66.68
2018-11-02T13:23:18.311Z,67.86
2018-11-02T13:25:46.766Z,66.78
2018-11-02T13:28:16.021Z,67.40
2018-11-02T13:30:44.763Z,68.53
2018-11-02T13:33:13.157Z,66.62
2018-11-02T13:35:41.766Z,67.26
2018-11-02T13:38:10.166Z,67.24
2018-11-02T13:40:38.742Z,68.77
2018-11-02T13:43:07.244Z,68.58
2018-11-02T13:45:35.581Z,67.89
2018-11-02T13:48:03.942Z,66.59
2018-11-02T13:50:32.390Z,66.50
2018-11-02T13:53:00.811Z,65.64
2018-11-02T13:55:29.378Z,66.38
2018-11-02T13:57:57.767Z,67.97
2018-11-02T14:00:26.719Z,66.98
2018-11-02T14:02:55.220Z,65.69
2018-11-02T14:05:23.699Z,66.65
2018-11-02T14:07:52.065Z,66.64
2018-11-02T14:10:20.448Z,67.35
2018-11-02T14:12:48.862Z,69.40
2018-11-02T14:15:17.577Z,68.51
2018-11-02T14:17:46.047Z,67.32
2018-11-02T14:20:14.962Z,66.75
2018-11-02T14:22:44.001Z,68.15
2018-11-02T14:25:13.550Z,66.38
2018-11-02T14:27:41.891Z,66.34
2018-11-02T14:30:12.901Z,67.12
2018-11-02T14:32:41.467Z,67.50
2018-11-02T14:35:10.065Z,67.57
2018-11-02T14:37:38.634Z,66.52
2018-11-02T14:40:08.120Z,66.70
2018-11-02T14:42:36.778Z,67.03
2018-11-02T14:45:06.095Z,66.51
2018-11-02T14:47:35.576Z,67.38
2018-11-02T14:50:04.493Z,67.67
2018-11-02T14:52:32.806Z,68.13
2018-11-02T14:55:01.107Z,67.25
2018-11-02T14:57:29.464Z,67.37
2018-11-02T14:59:57.892Z,66.76
2018-11-02T15:02:26.484Z,67.62
2018-11-02T15:04:54.800Z,67.71
2018-11-02T15:07:23.091Z,67.98
2018-11-02T15:09:51.422Z,69.63
2018-11-02T15:12:19.846Z,69.14
2018-11-02T15:14:48.177Z,70.26
2018-11-02T15:17:16.515Z,72.20
2018-11-02T15:19:45.478Z,73.43
2018-11-02T15:22:13.832Z,75.60
2018-11-02T15:24:42.148Z,75.87
2018-11-02T15:27:10.455Z,76.57
2018-11-02T15:29:38.780Z,77.20
2018-11-02T15:32:07.147Z,77.54
2018-11-02T15:34:35.448Z,77.20
2018-11-02T15:37:03.822Z,76.57
2018-11-02T15:39:32.108Z,75.24
2018-11-02T15:42:00.447Z,77.67
2018-11-02T15:44:28.834Z,80.90
2018-11-02T15:46:57.116Z,81.40
2018-11-02T15:49:25.603Z,81.67
2018-11-02T15:51:53.950Z,82.28
2018-11-02T15:54:22.414Z,82.23
2018-11-02T15:56:50.872Z,83.24
2018-11-02T15:59:19.386Z,83.69
2018-11-02T16:01:47.843Z,83.30
2018-11-02T16:04:16.354Z,83.24
2018-11-02T16:06:44.909Z,83.17
2018-11-02T16:09:15.198Z,82.84
2018-11-02T16:11:44.318Z,80.90
2018-11-02T16:14:13.145Z,81.50
2018-11-02T16:16:41.583Z,82.15
2018-11-02T16:19:10.032Z,82.69
2018-11-02T16:21:39.115Z,83.33
2018-11-02T16:24:08.311Z,84.35
2018-11-02T16:26:36.612Z,82.81
2018-11-02T16:29:04.938Z,82.28
2018-11-02T16:31:33.233Z,82.76
2018-11-02T16:34:01.572Z,83.29
2018-11-02T16:36:29.893Z,83.14
2018-11-02T16:38:58.300Z,82.60
2018-11-02T16:41:26.592Z,83.46
2018-11-02T16:43:55.007Z,82.82
2018-11-02T16:46:23.321Z,82.68
2018-11-02T16:48:51.651Z,82.46
2018-11-02T16:51:19.944Z,81.63
2018-11-02T16:53:48.274Z,81.97
2018-11-02T16:56:16.751Z,81.92
2018-11-02T16:58:45.665Z,83.33
2018-11-02T17:01:14.465Z,82.32
2018-11-02T17:03:43.066Z,80.95
2018-11-02T17:06:11.615Z,81.56
2018-11-02T17:08:40.117Z,81.90
2018-11-02T17:11:08.596Z,82.39
2018-11-02T17:13:36.926Z,82.14
2018-11-02T17:16:05.787Z,82.16
2018-11-02T17:18:34.306Z,81.65
2018-11-02T17:21:02.619Z,80.89
2018-11-02T17:23:31.250Z,81.05
2018-11-02T17:25:59.559Z,81.09
2018-11-02T17:28:27.949Z,82.42
2018-11-02T17:30:56.406Z,82.99
2018-11-02T17:33:24.720Z,82.76
2018-11-02T17:35:53.032Z,83.52
2018-11-02T17:38:21.457Z,84.37
2018-11-02T17:40:50.097Z,84.76
2018-11-02T17:43:18.468Z,84.43
2018-11-02T17:45:46.891Z,84.89
2018-11-02T17:48:15.451Z,84.95
2018-11-02T17:50:44.021Z,85.45
2018-11-02T17:53:12.772Z,85.62
2018-11-02T17:55:41.338Z,86.11
2018-11-02T17:58:09.714Z,85.45
2018-11-02T18:00:38.051Z,86.60
2018-11-02T18:03:06.408Z,87.33
2018-11-02T18:05:34.708Z,87.12
2018-11-02T18:08:03.218Z,87.03
2018-11-02T18:10:31.709Z,87.11
2018-11-02T18:13:00.450Z,86.18
2018-11-02T18:15:28.961Z,87.82
2018-11-02T18:17:57.335Z,86.29
2018-11-02T18:20:25.696Z,85.42
2018-11-02T18:22:54.006Z,85.68
2018-11-02T18:25:24.342Z,85.75
2018-11-02T18:27:56.316Z,85.84
2018-11-02T18:30:27.995Z,86.58
2018-11-02T18:32:58.370Z,86.32
2018-11-02T18:35:28.429Z,86.66
2018-11-02T18:37:58.220Z,87.25
2018-11-02T18:40:30.357Z,86.85
2018-11-02T18:42:59.019Z,85.80
2018-11-02T18:45:27.612Z,85.30
2018-11-02T18:47:55.962Z,85.81
2018-11-02T18:50:24.344Z,85.47
2018-11-02T18:52:52.679Z,85.47
2018-11-02T18:55:21.477Z,86.34
2018-11-02T18:57:49.881Z,86.19
2018-11-02T19:00:18.531Z,86.69
2018-11-02T19:02:46.843Z,86.40
2018-11-02T19:05:16.470Z,86.13
2018-11-02T19:07:44.780Z,86.01
2018-11-02T19:10:13.362Z,86.63
2018-11-02T19:12:42.544Z,86.37
2018-11-02T19:15:13.111Z,86.81
2018-11-02T19:17:41.807Z,87.67
2018-11-02T19:20:10.909Z,87.99
2018-11-02T19:22:39.180Z,87.78
2018-11-02T19:25:08.939Z,86.82
2018-11-02T19:27:37.575Z,87.28
2018-11-02T19:30:07.480Z,87.59
2018-11-02T19:32:35.873Z,87.89
2018-11-02T19:35:04.402Z,87.32
2018-11-02T19:37:32.559Z,88.51
2018-11-02T19:40:01.008Z,87.68
2018-11-02T19:42:29.449Z,88.17
2018-11-02T19:44:58.305Z,88.62
2018-11-02T19:47:31.894Z,87.77
2018-11-02T19:50:00.366Z,87.38
2018-11-02T19:52:28.770Z,87.85
2018-11-02T19:54:57.177Z,87.66
2018-11-02T19:57:26.308Z,88.58
2018-11-02T19:59:54.925Z,86.83
2018-11-02T20:02:24.446Z,87.67
2018-11-02T20:04:52.868Z,87.67
2018-11-02T20:07:21.441Z,89.86
2018-11-02T20:09:49.844Z,88.80
2018-11-02T20:12:18.242Z,87.24
2018-11-02T20:14:46.762Z,88.52
2018-11-02T20:17:15.733Z,88.29
2018-11-02T20:19:44.759Z,87.81
2018-11-02T20:22:13.318Z,87.81
2018-11-02T20:24:42.223Z,87.95
2018-11-02T20:27:10.562Z,87.76
2018-11-02T20:29:38.885Z,88.15
2018-11-02T20:32:07.303Z,88.92
2018-11-02T20:34:37.286Z,87.98
2018-11-02T20:37:07.580Z,88.00
2018-11-02T20:39:38.292Z,88.43
2018-11-02T20:42:07.933Z,87.97
2018-11-02T20:44:37.703Z,88.22
2018-11-02T20:47:07.144Z,88.19
2018-11-02T20:49:36.931Z,88.56
2018-11-02T20:52:07.177Z,87.97
2018-11-02T20:54:37.680Z,88.67
2018-11-02T20:57:06.122Z,88.82
2018-11-02T20:59:34.766Z,88.74
2018-11-02T21:02:03.196Z,88.22
2018-11-02T21:04:32.218Z,88.28
2018-11-02T21:07:00.558Z,88.16
2018-11-02T21:09:29.417Z,88.50
2018-11-02T21:11:57.844Z,88.96
2018-11-02T21:14:26.904Z,88.34
2018-11-02T21:16:56.422Z,88.46
2018-11-02T21:19:25.188Z,89.08
2018-11-02T21:21:53.691Z,89.15
2018-11-02T21:24:22.447Z,89.98
2018-11-02T21:26:51.236Z,90.15
2018-11-02T21:29:21.127Z,90.41
2018-11-02T21:31:49.591Z,90.46
2018-11-02T21:34:18.071Z,91.25
2018-11-02T21:36:46.386Z,91.57
2018-11-02T21:39:14.877Z,90.86
2018-11-02T21:41:43.902Z,90.36
2018-11-02T21:44:12.315Z,89.27
2018-11-02T21:46:40.679Z,88.84
2018-11-02T21:49:08.974Z,88.78
2018-11-02T21:51:37.656Z,89.02
2018-11-02T21:54:07.684Z,88.53
2018-11-02T21:56:36.033Z,88.79
2018-11-02T21:59:04.339Z,89.10
2018-11-02T22:01:32.667Z,89.09
2018-11-02T22:04:00.955Z,89.38
2018-11-02T22:06:29.386Z,89.32
2018-11-02T22:08:57.749Z,89.08
2018-11-02T22:11:26.471Z,89.95
2018-11-02T22:13:54.729Z,89.86
2018-11-02T22:16:23.576Z,90.27
2018-11-02T22:18:57.735Z,90.99
2018-11-02T22:21:26.459Z,91.02
2018-11-02T22:23:55.007Z,90.87
2018-11-02T22:26:23.403Z,90.23
2018-11-02T22:28:51.886Z,90.17
2018-11-02T22:31:20.184Z,89.81
2018-11-02T22:33:48.490Z,90.36
2018-11-02T22:36:17.183Z,89.77
2018-11-02T22:38:45.644Z,89.33
2018-11-02T22:41:14.295Z,90.14
2018-11-02T22:43:42.648Z,90.81
2018-11-02T22:46:11.035Z,90.38
2018-11-02T22:48:39.458Z,89.94
2018-11-02T22:51:07.708Z,90.49
2018-11-02T22:53:36.259Z,90.22
2018-11-02T22:56:04.603Z,90.29
2018-11-02T22:58:32.891Z,90.36
2018-11-02T23:01:06.595Z,90.81
2018-11-02T23:03:35.147Z,90.71
2018-11-02T23:06:03.524Z,90.53
2018-11-02T23:08:31.859Z,91.37
2018-11-02T23:11:00.298Z,91.71
2018-11-02T23:13:28.657Z,91.75
2018-11-02T23:15:57.135Z,92.59
2018-11-02T23:18:25.452Z,92.30
2018-11-02T23:20:53.858Z,92.60
2018-11-02T23:23:22.241Z,92.66
2018-11-02T23:25:50.647Z,92.54
2018-11-02T23:28:19.051Z,92.68
2018-11-02T23:30:47.334Z,92.78
2018-11-02T23:33:15.680Z,92.32
2018-11-02T23:35:43.973Z,92.12
2018-11-02T23:38:12.395Z,91.67
2018-11-02T23:40:40.721Z,91.30
2018-11-02T23:43:09.054Z,91.49
2018-11-02T23:45:37.519Z,91.19
2018-11-02T23:48:11.749Z,91.56
2018-11-02T23:50:40.895Z,91.71
2018-11-02T23:53:11.855Z,91.64
2018-11-02T23:55:41.986Z,91.81
2018-11-02T23:58:10.379Z,92.43
